Time;durP1;ratioP1;P1;durP2;ratioP2;P2;SDS_P1;SDS_P2;PMS_P1;PMS_P2;Temp;Humidity;BMP_temperature;BMP_pressure;BME280_temperature;BME280_humidity;BME280_pressure;Samples;Min_cycle;Max_cycle;Signal;HPM_P1;HPM_P2
2021/12/11 00:01:48;;;;;;;5.70;3.30;;;;;;;;;;5008134;28;20455;-55
2021/12/11 00:04:22;;;;;;;5.43;3.97;;;;;;;;;;5005371;28;20061;-53
2021/12/11 00:06:49;;;;;;;6.70;4.30;;;;;;;;;;5006395;28;20527;-53
2021/12/11 00:09:28;;;;;;;5.72;3.92;;;;;;;;;;5006662;28;20030;-53
2021/12/11 00:11:56;;;;;;;5.43;3.60;;;;;;;;;;5004942;28;20121;-54
2021/12/11 00:14:21;;;;;;;6.32;3.80;;;;;;;;;;5006269;28;20022;-53
2021/12/11 00:16:47;;;;;;;5.93;3.78;;;;;;;;;;5006183;28;20037;-54
2021/12/11 00:19:13;;;;;;;5.40;3.57;;;;;;;;;;5018799;28;20138;-53
2021/12/11 00:21:40;;;;;;;6.63;3.83;;;;;;;;;;5008412;28;20026;-53
2021/12/11 00:24:07;;;;;;;5.20;3.80;;;;;;;;;;5005891;28;20013;-55
2021/12/11 00:26:42;;;;;;;5.90;3.85;;;;;;;;;;5006279;28;20128;-56
2021/12/11 00:29:09;;;;;;;7.22;4.43;;;;;;;;;;5006101;28;20014;-54
2021/12/11 00:31:35;;;;;;;6.03;3.92;;;;;;;;;;5005869;28;20045;-55
2021/12/11 00:34:01;;;;;;;6.45;3.60;;;;;;;;;;5005660;28;20001;-54
2021/12/11 00:36:31;;;;;;;6.30;3.72;;;;;;;;;;5005666;28;20504;-54
2021/12/11 00:39:00;;;;;;;5.80;3.63;;;;;;;;;;5006163;28;20026;-54
2021/12/11 00:41:25;;;;;;;5.47;3.67;;;;;;;;;;5005776;28;20022;-54
2021/12/11 00:43:50;;;;;;;4.85;3.47;;;;;;;;;;5004622;28;20020;-54
2021/12/11 00:46:17;;;;;;;6.45;3.75;;;;;;;;;;5006427;28;20018;-55
2021/12/11 00:48:42;;;;;;;5.45;3.25;;;;;;;;;;5006818;28;20030;-55
2021/12/11 00:51:09;;;;;;;6.20;3.87;;;;;;;;;;5007196;28;20671;-54
2021/12/11 00:53:45;;;;;;;5.45;3.47;;;;;;;;;;5007085;28;20746;-54
2021/12/11 00:56:11;;;;;;;5.82;3.30;;;;;;;;;;5007084;28;20030;-54
2021/12/11 00:58:37;;;;;;;5.25;3.15;;;;;;;;;;5008546;28;20499;-54
2021/12/11 01:01:08;;;;;;;5.75;3.53;;;;;;;;;;5007944;28;20105;-54
2021/12/11 01:03:33;;;;;;;5.32;3.42;;;;;;;;;;5007043;28;20032;-54
2021/12/11 01:05:59;;;;;;;7.20;3.60;;;;;;;;;;5026194;28;20036;-53
2021/12/11 01:08:35;;;;;;;6.28;3.63;;;;;;;;;;5025104;28;20284;-54
2021/12/11 01:11:21;;;;;;;5.32;3.35;;;;;;;;;;5024646;28;20033;-54
2021/12/11 01:13:48;;;;;;;6.30;3.88;;;;;;;;;;5024639;28;20123;-54
2021/12/11 01:16:15;;;;;;;5.85;3.95;;;;;;;;;;5017874;28;20563;-53
2021/12/11 01:18:42;;;;;;;5.90;3.42;;;;;;;;;;5004036;28;20096;-54
2021/12/11 01:26:25;;;;;;;6.63;3.78;;;;;;;;;;5005146;28;20033;-54
2021/12/11 01:28:50;;;;;;;5.03;3.23;;;;;;;;;;5014368;28;20029;-53
2021/12/11 01:31:16;;;;;;;5.80;3.40;;;;;;;;;;5024237;28;20284;-54
2021/12/11 01:33:41;;;;;;;6.43;3.50;;;;;;;;;;5024156;28;21097;-54
2021/12/11 01:36:07;;;;;;;6.07;3.58;;;;;;;;;;5020118;28;20463;-54
2021/12/11 01:38:32;;;;;;;5.20;3.17;;;;;;;;;;5004447;28;20450;-54
2021/12/11 01:40:59;;;;;;;5.40;3.80;;;;;;;;;;5004312;28;20026;-52
2021/12/11 01:43:24;;;;;;;5.57;3.45;;;;;;;;;;5004215;28;20404;-54
2021/12/11 01:45:50;;;;;;;5.90;3.28;;;;;;;;;;5004118;28;20022;-53
2021/12/11 01:48:19;;;;;;;5.82;3.47;;;;;;;;;;5004096;28;20416;-53
2021/12/11 01:50:46;;;;;;;6.20;3.55;;;;;;;;;;5004031;28;20499;-53
2021/12/11 01:53:13;;;;;;;5.38;3.53;;;;;;;;;;5003822;28;20549;-53
2021/12/11 01:55:39;;;;;;;5.43;3.42;;;;;;;;;;5003817;28;20042;-53
2021/12/11 01:58:05;;;;;;;5.20;3.10;;;;;;;;;;5004153;28;20094;-54
2021/12/11 02:00:37;;;;;;;5.72;3.50;;;;;;;;;;5004168;28;20407;-54
2021/12/11 02:03:06;;;;;;;5.40;3.28;;;;;;;;;;5004273;28;20033;-52
2021/12/11 02:05:32;;;;;;;5.78;3.78;;;;;;;;;;5004205;28;20018;-53
2021/12/11 02:07:58;;;;;;;4.80;2.90;;;;;;;;;;5006548;28;20249;-52
2021/12/11 02:10:28;;;;;;;5.10;2.97;;;;;;;;;;5024032;28;20511;-52
2021/12/11 02:12:53;;;;;;;6.05;3.25;;;;;;;;;;5023653;28;20039;-52
2021/12/11 02:15:20;;;;;;;5.10;3.13;;;;;;;;;;5023297;28;20033;-52
2021/12/11 02:17:53;;;;;;;4.70;3.20;;;;;;;;;;5005997;28;20510;-53
2021/12/11 02:20:26;;;;;;;6.68;3.63;;;;;;;;;;5004103;28;20033;-53
2021/12/11 02:22:52;;;;;;;6.47;3.53;;;;;;;;;;5003872;28;20018;-53
2021/12/11 02:25:20;;;;;;;6.22;3.28;;;;;;;;;;5003095;28;20416;-53
2021/12/11 02:27:50;;;;;;;5.40;3.30;;;;;;;;;;5006133;28;20618;-52
2021/12/11 02:30:20;;;;;;;5.30;3.13;;;;;;;;;;5007651;28;20508;-53
2021/12/11 02:32:45;;;;;;;;;;;;;;;;;;5008005;28;20050;-53
2021/12/11 02:35:18;;;;;;;4.55;2.88;;;;;;;;;;5007831;28;20015;-53
2021/12/11 02:37:48;;;;;;;4.68;2.85;;;;;;;;;;5007405;28;20029;-52
2021/12/11 02:40:19;;;;;;;4.13;2.70;;;;;;;;;;5007890;28;20041;-53
2021/12/11 02:42:55;;;;;;;6.10;3.22;;;;;;;;;;5007858;28;20034;-53
2021/12/11 02:45:20;;;;;;;5.88;3.00;;;;;;;;;;5007642;28;20623;-55
2021/12/11 02:47:47;;;;;;;4.77;3.00;;;;;;;;;;5007586;28;20025;-53
2021/12/11 02:50:14;;;;;;;5.00;2.92;;;;;;;;;;5007618;28;20260;-53
2021/12/11 02:52:40;;;;;;;4.68;2.83;;;;;;;;;;5007454;28;20076;-53
2021/12/11 02:55:13;;;;;;;5.83;3.13;;;;;;;;;;5007471;28;20034;-52
2021/12/11 02:57:42;;;;;;;5.35;3.15;;;;;;;;;;5007458;28;20018;-53
2021/12/11 03:00:13;;;;;;;4.43;2.63;;;;;;;;;;5007222;28;20021;-52
2021/12/11 03:02:44;;;;;;;4.55;2.92;;;;;;;;;;5007170;28;20108;-53
2021/12/11 03:05:12;;;;;;;4.18;2.63;;;;;;;;;;5007328;28;20358;-53
2021/12/11 03:07:39;;;;;;;4.90;2.70;;;;;;;;;;5007537;28;20030;-53
2021/12/11 03:10:09;;;;;;;4.30;2.92;;;;;;;;;;5007310;28;20101;-54
2021/12/11 03:12:35;;;;;;;5.03;3.28;;;;;;;;;;5007455;28;20120;-53
2021/12/11 03:15:00;;;;;;;3.93;2.50;;;;;;;;;;5007339;28;20642;-52
2021/12/11 03:17:27;;;;;;;4.27;2.70;;;;;;;;;;5007106;28;20641;-53
2021/12/11 03:19:52;;;;;;;5.47;2.88;;;;;;;;;;5006872;28;20277;-53
2021/12/11 03:22:19;;;;;;;3.83;2.20;;;;;;;;;;5007094;28;20042;-53
2021/12/11 03:24:45;;;;;;;4.70;2.50;;;;;;;;;;5007168;28;20045;-53
2021/12/11 03:27:10;;;;;;;4.50;2.65;;;;;;;;;;5007126;28;20029;-58
2021/12/11 03:29:35;;;;;;;4.10;2.53;;;;;;;;;;5007104;28;20034;-53
2021/12/11 03:32:01;;;;;;;4.40;2.65;;;;;;;;;;5025803;28;20287;-53
2021/12/11 03:34:26;;;;;;;4.65;2.90;;;;;;;;;;5026538;28;20036;-54
2021/12/11 03:36:52;;;;;;;5.57;2.67;;;;;;;;;;5016969;28;20083;-53
2021/12/11 03:39:22;;;;;;;4.03;2.25;;;;;;;;;;5005812;28;20514;-54
2021/12/11 03:41:47;;;;;;;4.00;2.63;;;;;;;;;;5006741;28;20065;-53
2021/12/11 03:44:13;;;;;;;3.88;2.35;;;;;;;;;;5006803;28;20056;-52
2021/12/11 03:46:38;;;;;;;3.88;2.60;;;;;;;;;;5007126;28;20076;-53
2021/12/11 03:49:05;;;;;;;4.35;2.50;;;;;;;;;;5007021;28;20413;-53
2021/12/11 03:51:32;;;;;;;5.20;2.80;;;;;;;;;;5021736;28;20037;-53
2021/12/11 03:53:57;;;;;;;4.07;2.50;;;;;;;;;;5026073;28;20584;-54
2021/12/11 03:56:22;;;;;;;3.88;2.33;;;;;;;;;;5021221;28;20492;-55
2021/12/11 03:58:51;;;;;;;4.87;2.80;;;;;;;;;;5008198;28;20032;-55
2021/12/11 04:01:21;;;;;;;4.13;2.35;;;;;;;;;;5008188;28;20462;-54
2021/12/11 04:03:47;;;;;;;3.38;2.20;;;;;;;;;;5008191;28;20117;-54
2021/12/11 04:06:12;;;;;;;3.90;2.38;;;;;;;;;;5008636;28;20112;-54
2021/12/11 04:08:41;;;;;;;3.93;2.30;;;;;;;;;;5007052;28;20754;-55
2021/12/11 04:11:13;;;;;;;3.47;2.25;;;;;;;;;;5006502;28;20273;-55
2021/12/11 04:13:39;;;;;;;4.35;2.40;;;;;;;;;;5006356;28;20022;-54
2021/12/11 04:16:04;;;;;;;4.03;2.30;;;;;;;;;;5005988;28;20092;-55
2021/12/11 04:18:29;;;;;;;3.20;2.10;;;;;;;;;;5006200;28;20114;-54
2021/12/11 04:20:55;;;;;;;3.88;2.42;;;;;;;;;;5006180;28;20534;-54
2021/12/11 04:23:20;;;;;;;3.90;2.30;;;;;;;;;;5006167;28;20026;-55
2021/12/11 04:25:46;;;;;;;3.45;2.30;;;;;;;;;;5005999;28;20774;-55
2021/12/11 04:28:11;;;;;;;3.95;2.35;;;;;;;;;;5006730;28;20034;-54
2021/12/11 04:30:36;;;;;;;3.25;2.25;;;;;;;;;;5006377;28;20400;-54
2021/12/11 04:33:02;;;;;;;3.78;2.42;;;;;;;;;;5006528;28;20044;-55
2021/12/11 04:35:28;;;;;;;3.88;2.35;;;;;;;;;;5006135;28;20037;-53
2021/12/11 04:37:54;;;;;;;3.35;2.05;;;;;;;;;;5005736;28;20030;-55
2021/12/11 04:40:21;;;;;;;3.55;2.20;;;;;;;;;;5005815;28;20033;-55
2021/12/11 04:45:13;;;;;;;3.70;1.95;;;;;;;;;;5005993;28;20416;-54
2021/12/11 04:47:49;;;;;;;3.90;2.10;;;;;;;;;;5004542;28;20573;-54
2021/12/11 04:50:23;;;;;;;3.47;1.92;;;;;;;;;;5005672;28;20040;-54
2021/12/11 05:08:36;;;;;;;3.35;1.83;;;;;;;;;;5004862;28;20111;-54
2021/12/11 05:11:02;;;;;;;3.35;2.03;;;;;;;;;;5005255;28;20034;-54
2021/12/11 05:13:27;;;;;;;4.03;2.38;;;;;;;;;;5005098;28;20113;-54
2021/12/11 05:15:53;;;;;;;3.25;1.80;;;;;;;;;;5004774;28;20132;-53
2021/12/11 05:18:19;;;;;;;3.25;1.90;;;;;;;;;;5005297;28;20473;-54
2021/12/11 05:20:45;;;;;;;2.95;2.08;;;;;;;;;;5004931;28;20566;-52
2021/12/11 05:23:10;;;;;;;3.83;2.03;;;;;;;;;;5005296;28;20113;-54
2021/12/11 05:25:35;;;;;;;3.27;2.20;;;;;;;;;;5004779;28;20814;-53
2021/12/11 05:28:01;;;;;;;3.43;2.00;;;;;;;;;;5004986;28;20675;-54
2021/12/11 05:30:28;;;;;;;3.20;2.00;;;;;;;;;;5005293;28;20377;-52
2021/12/11 05:32:54;;;;;;;3.30;1.98;;;;;;;;;;5004867;28;20125;-54
2021/12/11 05:35:19;;;;;;;4.50;2.08;;;;;;;;;;5004597;28;20037;-54
2021/12/11 05:37:44;;;;;;;2.70;1.80;;;;;;;;;;4985239;28;20421;-54
2021/12/11 05:40:10;;;;;;;3.92;2.28;;;;;;;;;;4992214;28;20338;-54
2021/12/11 05:42:36;;;;;;;3.80;2.15;;;;;;;;;;5004884;28;20021;-53
2021/12/11 05:45:01;;;;;;;3.08;1.95;;;;;;;;;;5004609;28;20475;-54
2021/12/11 05:47:26;;;;;;;3.28;1.85;;;;;;;;;;4995711;28;20018;-52
2021/12/11 05:49:51;;;;;;;3.50;1.63;;;;;;;;;;5003653;28;20030;-52
2021/12/11 05:52:17;;;;;;;2.20;1.50;;;;;;;;;;5004040;28;20257;-53
2021/12/11 05:54:43;;;;;;;2.97;1.90;;;;;;;;;;5003878;28;20820;-52
2021/12/11 05:57:11;;;;;;;3.75;1.98;;;;;;;;;;4993081;28;20030;-52
2021/12/11 05:59:36;;;;;;;3.55;1.90;;;;;;;;;;4999098;28;20499;-52
2021/12/11 06:02:04;;;;;;;2.83;1.75;;;;;;;;;;5001490;28;20022;-51
2021/12/11 06:04:31;;;;;;;3.00;1.83;;;;;;;;;;5003687;28;20026;-52
2021/12/11 06:06:57;;;;;;;2.65;1.55;;;;;;;;;;5003898;28;20018;-52
2021/12/11 06:09:22;;;;;;;3.60;1.73;;;;;;;;;;5003525;28;20021;-52
2021/12/11 06:11:48;;;;;;;3.22;1.63;;;;;;;;;;5003289;28;20028;-52
2021/12/11 06:14:16;;;;;;;2.83;1.45;;;;;;;;;;5003502;28;20022;-51
2021/12/11 06:16:42;;;;;;;2.60;1.70;;;;;;;;;;4996802;28;20026;-52
2021/12/11 06:19:07;;;;;;;2.97;1.73;;;;;;;;;;4994825;28;20400;-52
2021/12/11 06:21:33;;;;;;;2.92;1.67;;;;;;;;;;5003361;28;20033;-53
2021/12/11 06:23:58;;;;;;;3.85;1.85;;;;;;;;;;5003465;28;20073;-53
2021/12/11 06:26:24;;;;;;;3.65;2.05;;;;;;;;;;4990640;28;20501;-53
2021/12/11 06:28:49;;;;;;;2.97;1.80;;;;;;;;;;4991664;28;20036;-52
2021/12/11 06:31:18;;;;;;;3.03;1.50;;;;;;;;;;4986057;28;20019;-52
2021/12/11 06:33:44;;;;;;;3.53;1.70;;;;;;;;;;4985916;28;20281;-52
2021/12/11 06:36:14;;;;;;;2.60;1.50;;;;;;;;;;4985391;28;20033;-53
2021/12/11 06:38:39;;;;;;;;;;;;;;;;;;4986447;28;20022;-52
2021/12/11 06:41:05;;;;;;;3.97;1.93;;;;;;;;;;4985519;28;20296;-52
2021/12/11 06:43:30;;;;;;;3.85;1.75;;;;;;;;;;4985844;28;20260;-52
2021/12/11 06:45:55;;;;;;;3.23;1.60;;;;;;;;;;4986047;28;20045;-53
2021/12/11 06:48:21;;;;;;;3.10;1.60;;;;;;;;;;4985659;28;20273;-52
2021/12/11 06:50:46;;;;;;;2.30;1.42;;;;;;;;;;4997618;28;20032;-51
2021/12/11 06:53:14;;;;;;;3.58;1.90;;;;;;;;;;5000077;28;20544;-52
2021/12/11 06:55:39;;;;;;;3.08;2.00;;;;;;;;;;5001429;28;20052;-53
2021/12/11 06:58:04;;;;;;;2.97;1.50;;;;;;;;;;4989874;28;20018;-53
2021/12/11 07:00:29;;;;;;;2.58;1.50;;;;;;;;;;5004869;28;20030;-53
2021/12/11 07:02:54;;;;;;;3.27;1.30;;;;;;;;;;5005028;28;20041;-53
2021/12/11 07:05:20;;;;;;;2.80;1.63;;;;;;;;;;5004597;28;20265;-53
2021/12/11 07:07:46;;;;;;;4.75;1.70;;;;;;;;;;5004819;28;20040;-56
2021/12/11 07:10:12;;;;;;;3.45;1.30;;;;;;;;;;5007680;28;20034;-61
2021/12/11 07:12:37;;;;;;;1.90;1.20;;;;;;;;;;5004547;28;20037;-62
2021/12/11 07:15:04;;;;;;;2.20;1.40;;;;;;;;;;5007556;28;20484;-54
2021/12/11 07:17:29;;;;;;;2.47;1.40;;;;;;;;;;5012532;28;20296;-61
2021/12/11 07:19:54;;;;;;;2.23;1.50;;;;;;;;;;5010481;28;20542;-56
2021/12/11 07:22:19;;;;;;;2.93;1.47;;;;;;;;;;5008711;28;20065;-60
2021/12/11 07:24:50;;;;;;;2.93;1.40;;;;;;;;;;5007237;28;20053;-54
2021/12/11 07:27:17;;;;;;;2.45;1.40;;;;;;;;;;5006737;28;20352;-57
2021/12/11 07:29:42;;;;;;;2.22;1.23;;;;;;;;;;5005895;28;20052;-55
2021/12/11 07:32:07;;;;;;;2.35;1.42;;;;;;;;;;5003315;28;20026;-53
2021/12/11 07:34:33;;;;;;;2.88;1.63;;;;;;;;;;4995402;28;20025;-53
2021/12/11 07:36:58;;;;;;;2.42;1.20;;;;;;;;;;4996101;28;20464;-52
2021/12/11 07:39:24;;;;;;;2.60;1.23;;;;;;;;;;4996739;28;20064;-54
2021/12/11 07:41:50;;;;;;;4.00;1.70;;;;;;;;;;5002500;28;20033;-54
2021/12/11 07:44:15;;;;;;;3.80;1.67;;;;;;;;;;4995746;28;20026;-54
2021/12/11 07:46:41;;;;;;;2.38;1.42;;;;;;;;;;4991962;28;20022;-52
2021/12/11 07:49:06;;;;;;;4.20;1.77;;;;;;;;;;5001307;28;20152;-59
2021/12/11 07:51:32;;;;;;;2.72;1.80;;;;;;;;;;4999644;28;20053;-55
2021/12/11 07:53:58;;;;;;;2.92;1.63;;;;;;;;;;4994418;28;20046;-53
2021/12/11 07:56:23;;;;;;;3.50;1.52;;;;;;;;;;4988328;28;20053;-53
2021/12/11 07:58:49;;;;;;;2.67;1.50;;;;;;;;;;4987593;28;20072;-56
2021/12/11 08:01:14;;;;;;;3.20;1.67;;;;;;;;;;4987332;28;20276;-51
2021/12/11 08:03:40;;;;;;;3.10;1.60;;;;;;;;;;4987397;28;20015;-54
2021/12/11 08:06:05;;;;;;;3.72;1.77;;;;;;;;;;4987963;28;20261;-53
2021/12/11 08:08:31;;;;;;;3.03;1.65;;;;;;;;;;4988126;28;20026;-53
2021/12/11 08:10:57;;;;;;;3.37;2.00;;;;;;;;;;4996076;28;20477;-55
2021/12/11 08:13:22;;;;;;;3.25;2.00;;;;;;;;;;4997439;28;20280;-52
2021/12/11 08:15:49;;;;;;;4.30;1.60;;;;;;;;;;5006147;28;20034;-52
2021/12/11 08:18:15;;;;;;;3.22;1.50;;;;;;;;;;5006030;28;20562;-52
2021/12/11 08:20:41;;;;;;;4.30;2.03;;;;;;;;;;5006386;28;20118;-53
2021/12/11 08:23:06;;;;;;;5.72;2.00;;;;;;;;;;5006404;28;20024;-55
2021/12/11 08:25:32;;;;;;;3.28;1.77;;;;;;;;;;4991090;28;20025;-52
2021/12/11 08:27:58;;;;;;;5.15;1.98;;;;;;;;;;4989016;28;20108;-53
2021/12/11 08:30:24;;;;;;;7.88;6.10;;;;;;;;;;4987554;28;20072;-54
2021/12/11 08:32:49;;;;;;;5.72;1.92;;;;;;;;;;4986284;28;20113;-54
2021/12/11 08:35:15;;;;;;;3.03;1.52;;;;;;;;;;4986023;28;20114;-53
2021/12/11 08:37:41;;;;;;;3.60;1.70;;;;;;;;;;4985803;28;20046;-53
2021/12/11 08:40:08;;;;;;;3.40;2.00;;;;;;;;;;4985010;28;20328;-54
2021/12/11 08:42:34;;;;;;;3.15;1.85;;;;;;;;;;4986171;28;20518;-52
2021/12/11 08:45:05;;;;;;;5.23;1.70;;;;;;;;;;4982006;28;20109;-54
2021/12/11 08:47:34;;;;;;;3.35;1.90;;;;;;;;;;4997664;28;20269;-52
2021/12/11 08:49:59;;;;;;;4.03;1.85;;;;;;;;;;5005839;28;20049;-53
2021/12/11 08:52:25;;;;;;;3.38;1.88;;;;;;;;;;5005537;28;20527;-51
2021/12/11 08:54:50;;;;;;;4.10;1.80;;;;;;;;;;4986846;28;20058;-53
2021/12/11 08:57:16;;;;;;;3.13;1.90;;;;;;;;;;4986705;28;20038;-53
2021/12/11 08:59:42;;;;;;;3.25;1.83;;;;;;;;;;4985848;28;20265;-54
2021/12/11 09:02:07;;;;;;;4.00;1.88;;;;;;;;;;5002582;28;20038;-54
2021/12/11 09:04:33;;;;;;;3.90;1.80;;;;;;;;;;5005279;28;20018;-54
2021/12/11 09:07:03;;;;;;;3.40;1.77;;;;;;;;;;5005422;28;20415;-54
2021/12/11 09:09:30;;;;;;;6.95;3.80;;;;;;;;;;4999896;28;20745;-53
2021/12/11 09:12:02;;;;;;;4.53;2.63;;;;;;;;;;5003490;28;20037;-52
2021/12/11 09:14:32;;;;;;;2.85;2.20;;;;;;;;;;5005192;28;20029;-53
2021/12/11 09:16:58;;;;;;;3.38;1.92;;;;;;;;;;5005173;28;20046;-54
2021/12/11 09:19:27;;;;;;;3.40;2.05;;;;;;;;;;5005342;28;20096;-53
2021/12/11 09:21:53;;;;;;;2.83;1.98;;;;;;;;;;4989803;28;20060;-52
2021/12/11 09:24:23;;;;;;;3.83;2.20;;;;;;;;;;4985720;28;20026;-51
2021/12/11 09:26:48;;;;;;;;;;;;;;;;;;4985677;28;20073;-52
2021/12/11 09:29:30;;;;;;;3.25;1.90;;;;;;;;;;4985123;28;19944;-53
2021/12/11 09:32:02;;;;;;;3.33;1.95;;;;;;;;;;4992758;28;20065;-53
2021/12/11 09:34:29;;;;;;;3.25;2.22;;;;;;;;;;5003222;28;20084;-53
2021/12/11 09:36:57;;;;;;;3.85;1.98;;;;;;;;;;4991264;28;20108;-56
2021/12/11 09:39:23;;;;;;;5.25;1.85;;;;;;;;;;5005061;28;20029;-53
2021/12/11 09:41:48;;;;;;;3.90;1.98;;;;;;;;;;5005031;28;20051;-53
2021/12/11 09:44:15;;;;;;;3.57;1.90;;;;;;;;;;4997454;28;20030;-53
2021/12/11 09:46:41;;;;;;;2.92;1.52;;;;;;;;;;5004899;28;20064;-53
2021/12/11 09:49:07;;;;;;;3.78;2.20;;;;;;;;;;5004875;28;20026;-53
2021/12/11 09:51:36;;;;;;;2.92;1.50;;;;;;;;;;5004938;28;20029;-52
2021/12/11 09:54:03;;;;;;;4.07;2.22;;;;;;;;;;5004681;28;20049;-52
2021/12/11 09:56:34;;;;;;;3.80;2.17;;;;;;;;;;5004450;28;20057;-52
2021/12/11 09:59:00;;;;;;;2.80;1.70;;;;;;;;;;5004820;28;20423;-53
2021/12/11 10:01:27;;;;;;;3.58;1.95;;;;;;;;;;5005907;28;20037;-54
2021/12/11 10:03:56;;;;;;;3.58;2.10;;;;;;;;;;5007407;28;20289;-52
2021/12/11 10:06:40;;;;;;;4.43;2.15;;;;;;;;;;4996432;28;20035;-51
2021/12/11 10:09:17;;;;;;;3.65;2.17;;;;;;;;;;5006517;28;20036;-52
2021/12/11 10:11:42;;;;;;;4.93;2.05;;;;;;;;;;5005712;28;20040;-53
2021/12/11 10:14:09;;;;;;;4.43;2.30;;;;;;;;;;5003036;28;20110;-53
2021/12/11 10:16:36;;;;;;;3.47;1.90;;;;;;;;;;5004181;28;20033;-54
2021/12/11 10:19:02;;;;;;;3.75;2.00;;;;;;;;;;4994957;28;20034;-53
2021/12/11 10:21:32;;;;;;;4.97;3.05;;;;;;;;;;4994385;28;20463;-53
2021/12/11 10:23:58;;;;;;;4.05;2.30;;;;;;;;;;4999337;28;20064;-53
2021/12/11 10:26:26;;;;;;;3.95;2.20;;;;;;;;;;5004492;28;20034;-53
2021/12/11 10:28:53;;;;;;;3.67;2.10;;;;;;;;;;5005086;28;20022;-53
2021/12/11 10:31:22;;;;;;;4.55;2.45;;;;;;;;;;5009080;28;20054;-53
2021/12/11 10:33:48;;;;;;;4.10;2.20;;;;;;;;;;5006848;28;20084;-52
2021/12/11 10:36:14;;;;;;;4.00;2.15;;;;;;;;;;5006469;28;20046;-53
2021/12/11 10:38:39;;;;;;;4.78;2.08;;;;;;;;;;5007781;28;20500;-53
2021/12/11 10:41:05;;;;;;;3.30;1.75;;;;;;;;;;5005416;28;20032;-53
2021/12/11 10:43:39;;;;;;;7.75;3.10;;;;;;;;;;5004114;28;20053;-53
2021/12/11 10:46:05;;;;;;;5.95;3.20;;;;;;;;;;5001778;28;20054;-51
2021/12/11 10:48:30;;;;;;;4.97;2.90;;;;;;;;;;4997929;28;20307;-52
2021/12/11 10:51:09;;;;;;;5.90;2.83;;;;;;;;;;5007817;28;20030;-52
2021/12/11 10:53:35;;;;;;;6.10;2.55;;;;;;;;;;5007578;28;20082;-53
2021/12/11 10:56:01;;;;;;;4.60;2.67;;;;;;;;;;5007858;28;20042;-52
2021/12/11 10:58:28;;;;;;;6.70;2.65;;;;;;;;;;5007330;28;20084;-51
2021/12/11 11:00:55;;;;;;;5.32;2.75;;;;;;;;;;5007435;28;20053;-53
2021/12/11 11:03:20;;;;;;;5.32;2.60;;;;;;;;;;5006256;28;20112;-53
2021/12/11 11:05:45;;;;;;;4.93;2.67;;;;;;;;;;5007567;28;20472;-55
2021/12/11 11:08:10;;;;;;;4.50;2.70;;;;;;;;;;5003092;28;20563;-54
2021/12/11 11:10:37;;;;;;;5.15;2.63;;;;;;;;;;5009591;28;20287;-54
2021/12/11 11:13:03;;;;;;;4.13;2.70;;;;;;;;;;5003000;28;20022;-53
2021/12/11 11:15:29;;;;;;;4.32;2.72;;;;;;;;;;5009966;28;20042;-54
2021/12/11 11:17:54;;;;;;;5.30;2.47;;;;;;;;;;5009732;28;20026;-54
2021/12/11 11:20:21;;;;;;;4.90;2.73;;;;;;;;;;5002028;28;20696;-53
2021/12/11 11:22:47;;;;;;;4.65;2.47;;;;;;;;;;5006750;28;20272;-54
2021/12/11 11:25:14;;;;;;;6.10;2.57;;;;;;;;;;5007309;28;20025;-54
2021/12/11 11:27:39;;;;;;;5.70;2.22;;;;;;;;;;5007222;28;20029;-54
2021/12/11 11:30:06;;;;;;;5.35;2.60;;;;;;;;;;5008020;28;20030;-55
2021/12/11 11:32:31;;;;;;;4.75;2.63;;;;;;;;;;5005203;28;20018;-54
2021/12/11 11:35:10;;;;;;;4.50;2.53;;;;;;;;;;4993058;28;20917;-54
2021/12/11 11:37:35;;;;;;;5.93;2.38;;;;;;;;;;4996201;28;20489;-54
2021/12/11 11:40:01;;;;;;;4.35;2.60;;;;;;;;;;5001695;28;20040;-53
2021/12/11 11:42:26;;;;;;;4.78;2.55;;;;;;;;;;5004747;28;20507;-54
2021/12/11 11:44:52;;;;;;;4.83;2.30;;;;;;;;;;5006017;28;20064;-54
2021/12/11 11:47:17;;;;;;;4.82;2.28;;;;;;;;;;5006311;28;20287;-56
2021/12/11 11:49:43;;;;;;;5.03;2.58;;;;;;;;;;5005395;28;20032;-53
2021/12/11 11:52:10;;;;;;;4.07;2.28;;;;;;;;;;5006884;28;20033;-53
2021/12/11 11:54:36;;;;;;;3.90;2.13;;;;;;;;;;5006574;28;20049;-52
2021/12/11 11:57:06;;;;;;;4.18;2.10;;;;;;;;;;5006888;28;20091;-53
2021/12/11 11:59:31;;;;;;;;;;;;;;;;;;5006517;28;20427;-53
2021/12/11 12:02:00;;;;;;;5.03;2.40;;;;;;;;;;5006340;28;19913;-55
2021/12/11 12:04:25;;;;;;;5.10;2.72;;;;;;;;;;5006344;28;20488;-54
2021/12/11 12:06:54;;;;;;;3.87;2.43;;;;;;;;;;5006588;28;20037;-52
2021/12/11 12:09:20;;;;;;;4.20;2.10;;;;;;;;;;5006634;28;20663;-55
2021/12/11 12:11:45;;;;;;;3.80;2.20;;;;;;;;;;5006662;28;20045;-53
2021/12/11 12:14:12;;;;;;;3.90;2.33;;;;;;;;;;5006306;28;20026;-53
2021/12/11 12:16:38;;;;;;;3.70;2.15;;;;;;;;;;5006362;28;20310;-54
2021/12/11 12:19:04;;;;;;;5.55;2.90;;;;;;;;;;4994674;28;20468;-53
2021/12/11 12:21:29;;;;;;;3.33;1.93;;;;;;;;;;5000067;28;20030;-53
2021/12/11 12:23:54;;;;;;;4.38;2.35;;;;;;;;;;5005674;28;20018;-54
2021/12/11 12:26:22;;;;;;;4.17;2.40;;;;;;;;;;5003116;28;20026;-53
2021/12/11 12:28:48;;;;;;;4.50;2.60;;;;;;;;;;4988567;28;20281;-51
2021/12/11 12:31:17;;;;;;;3.60;2.28;;;;;;;;;;4993042;28;20531;-53
2021/12/11 12:33:43;;;;;;;4.93;2.60;;;;;;;;;;5005614;28;20104;-54
2021/12/11 12:36:08;;;;;;;4.57;2.58;;;;;;;;;;4999962;28;20173;-55
2021/12/11 12:38:34;;;;;;;3.95;2.35;;;;;;;;;;4987393;28;20018;-53
2021/12/11 12:41:01;;;;;;;4.18;2.30;;;;;;;;;;5005617;28;20492;-54
2021/12/11 12:46:11;;;;;;;4.00;2.42;;;;;;;;;;5005941;28;20037;-55
2021/12/11 12:48:37;;;;;;;3.63;2.33;;;;;;;;;;5005924;28;20030;-53
2021/12/11 12:51:03;;;;;;;4.93;2.73;;;;;;;;;;5005976;28;20268;-54
2021/12/11 12:53:33;;;;;;;3.97;2.30;;;;;;;;;;5005742;28;20380;-54
2021/12/11 12:56:18;;;;;;;4.18;2.50;;;;;;;;;;5005941;28;20041;-54
2021/12/11 12:58:52;;;;;;;5.72;2.55;;;;;;;;;;5005345;28;20115;-55
2021/12/11 13:01:19;;;;;;;4.10;2.33;;;;;;;;;;5005837;28;20817;-55
2021/12/11 13:03:45;;;;;;;4.07;2.58;;;;;;;;;;4991534;28;20056;-54
2021/12/11 13:06:12;;;;;;;5.28;2.50;;;;;;;;;;5009229;28;20014;-54
2021/12/11 13:08:49;;;;;;;4.53;2.67;;;;;;;;;;4994705;28;20459;-53
2021/12/11 13:11:35;;;;;;;5.18;2.67;;;;;;;;;;4988131;28;20018;-54
2021/12/11 13:14:00;;;;;;;4.30;2.58;;;;;;;;;;4998989;28;20724;-54
2021/12/11 13:16:30;;;;;;;5.60;2.45;;;;;;;;;;5005226;28;20582;-52
2021/12/11 13:19:00;;;;;;;4.53;2.50;;;;;;;;;;5005926;28;20022;-53
2021/12/11 13:21:25;;;;;;;;;;;;;;;;;;5005808;28;20022;-52
2021/12/11 13:23:51;;;;;;;4.88;2.42;;;;;;;;;;5005291;28;19909;-53
2021/12/11 13:26:17;;;;;;;4.00;2.20;;;;;;;;;;5005078;28;20435;-53
2021/12/11 13:28:44;;;;;;;5.18;2.58;;;;;;;;;;5004915;28;20021;-54
2021/12/11 13:31:14;;;;;;;4.75;2.47;;;;;;;;;;5005047;28;20131;-56
2021/12/11 13:33:40;;;;;;;;;;;;;;;;;;5005309;28;20033;-55
2021/12/11 13:36:05;;;;;;;3.60;2.45;;;;;;;;;;4988775;28;19926;-55
2021/12/11 13:38:30;;;;;;;5.07;2.58;;;;;;;;;;5001841;28;20026;-54
2021/12/11 13:41:00;;;;;;;3.67;2.53;;;;;;;;;;5004194;28;20567;-53
2021/12/11 13:43:25;;;;;;;5.53;2.42;;;;;;;;;;5004448;28;20544;-55
2021/12/11 13:45:51;;;;;;;4.35;2.90;;;;;;;;;;5004534;28;20120;-53
2021/12/11 13:48:16;;;;;;;4.00;2.30;;;;;;;;;;5004649;28;20108;-53
2021/12/11 13:50:48;;;;;;;6.03;2.53;;;;;;;;;;5004549;28;20814;-54
2021/12/11 13:53:13;;;;;;;5.45;2.70;;;;;;;;;;5004369;28;20037;-53
2021/12/11 13:55:39;;;;;;;3.90;2.50;;;;;;;;;;4996372;28;20093;-53
2021/12/11 13:58:05;;;;;;;7.47;3.65;;;;;;;;;;4999463;28;20266;-53
2021/12/11 14:00:32;;;;;;;5.15;2.60;;;;;;;;;;5001713;28;20032;-55
2021/12/11 14:02:58;;;;;;;7.35;2.92;;;;;;;;;;5004499;28;20056;-53
2021/12/11 14:05:23;;;;;;;7.50;3.20;;;;;;;;;;5004249;28;20484;-53
2021/12/11 14:07:49;;;;;;;5.13;2.63;;;;;;;;;;5005025;28;20476;-53
2021/12/11 14:10:27;;;;;;;5.97;2.58;;;;;;;;;;5004738;28;20721;-54
2021/12/11 14:12:52;;;;;;;5.22;2.92;;;;;;;;;;5004463;28;20018;-54
2021/12/11 14:15:18;;;;;;;4.82;2.63;;;;;;;;;;5004534;28;20570;-54
2021/12/11 14:17:43;;;;;;;7.28;3.00;;;;;;;;;;5004216;28;20481;-52
2021/12/11 14:20:08;;;;;;;6.07;2.60;;;;;;;;;;5004773;28;20400;-53
2021/12/11 14:22:36;;;;;;;6.63;2.83;;;;;;;;;;5004673;28;20273;-53
2021/12/11 14:25:02;;;;;;;5.22;2.70;;;;;;;;;;5002953;28;20077;-53
2021/12/11 14:27:27;;;;;;;7.18;3.40;;;;;;;;;;4996519;28;20037;-54
2021/12/11 14:29:53;;;;;;;7.20;3.13;;;;;;;;;;5007830;28;20025;-53
2021/12/11 14:32:20;;;;;;;6.93;2.97;;;;;;;;;;4993207;28;20259;-52
2021/12/11 14:34:46;;;;;;;6.75;3.28;;;;;;;;;;5003205;28;20025;-52
2021/12/11 14:37:11;;;;;;;9.13;3.50;;;;;;;;;;4989230;28;20474;-53
2021/12/11 14:39:36;;;;;;;8.20;3.13;;;;;;;;;;4998234;28;20367;-54
2021/12/11 14:42:02;;;;;;;6.90;2.90;;;;;;;;;;5002238;28;20280;-54
2021/12/11 14:44:27;;;;;;;5.80;3.15;;;;;;;;;;5004926;28;20148;-54
2021/12/11 14:46:54;;;;;;;7.38;2.90;;;;;;;;;;5006719;28;20558;-55
2021/12/11 14:49:19;;;;;;;6.15;3.58;;;;;;;;;;5008178;28;20026;-53
2021/12/11 14:51:45;;;;;;;7.67;4.00;;;;;;;;;;5008090;28;20808;-54
2021/12/11 14:54:10;;;;;;;7.38;3.05;;;;;;;;;;5007617;28;20368;-54
2021/12/11 14:56:37;;;;;;;7.55;3.42;;;;;;;;;;5000485;28;20045;-53
2021/12/11 14:59:03;;;;;;;8.20;3.60;;;;;;;;;;4993094;28;20116;-53
2021/12/11 15:01:32;;;;;;;9.13;3.50;;;;;;;;;;5006184;28;20014;-54
2021/12/11 15:03:57;;;;;;;6.93;3.17;;;;;;;;;;5004933;28;20022;-53
2021/12/11 15:06:22;;;;;;;11.63;4.32;;;;;;;;;;5005464;28;20049;-52
2021/12/11 15:08:48;;;;;;;13.10;3.55;;;;;;;;;;5006830;28;20024;-53
2021/12/11 15:11:23;;;;;;;6.57;3.13;;;;;;;;;;5007372;28;20018;-54